createdAt,value
2019-05-25T00:01:43.388Z,4.80
2019-05-25T00:04:12.340Z,5.73
2019-05-25T00:06:41.281Z,5.50
2019-05-25T00:09:10.225Z,4.77
2019-05-25T00:11:39.155Z,5.00
2019-05-25T00:14:08.112Z,4.50
2019-05-25T00:16:37.063Z,4.87
2019-05-25T00:19:06.017Z,4.57
2019-05-25T00:21:34.951Z,5.07
2019-05-25T00:24:12.260Z,5.63
2019-05-25T00:26:34.621Z,5.10
2019-05-25T00:29:03.573Z,5.90
2019-05-25T00:31:33.437Z,5.20
2019-05-25T00:34:02.376Z,5.13
2019-05-25T00:36:31.313Z,5.63
2019-05-25T00:39:00.265Z,5.23
2019-05-25T00:41:29.207Z,5.40
2019-05-25T00:43:58.164Z,5.73
2019-05-25T00:46:27.106Z,5.87
2019-05-25T00:48:56.058Z,5.90
2019-05-25T00:51:25.002Z,5.90
2019-05-25T00:53:53.961Z,6.57
2019-05-25T00:56:22.896Z,6.60
2019-05-25T00:58:52.822Z,6.40
2019-05-25T01:01:24.509Z,6.67
2019-05-25T01:03:53.652Z,5.77
2019-05-25T01:06:22.593Z,6.30
2019-05-25T01:08:51.540Z,6.23
2019-05-25T01:11:21.562Z,6.37
2019-05-25T01:13:50.508Z,7.07
2019-05-25T01:16:19.456Z,6.93
2019-05-25T01:18:48.404Z,6.37
2019-05-25T01:21:17.343Z,6.03
2019-05-25T01:23:46.293Z,6.10
2019-05-25T01:26:16.205Z,6.27
2019-05-25T01:28:46.129Z,6.30
2019-05-25T01:31:15.061Z,5.50
2019-05-25T01:33:44.013Z,5.70
2019-05-25T01:36:12.958Z,6.37
2019-05-25T01:38:41.899Z,7.17
2019-05-25T01:41:10.863Z,6.47
2019-05-25T01:43:39.849Z,5.73
2019-05-25T01:46:08.829Z,6.27
2019-05-25T01:48:37.765Z,6.53
2019-05-25T01:51:06.741Z,6.73
2019-05-25T01:53:35.691Z,6.00
2019-05-25T01:56:04.709Z,6.50
2019-05-25T01:58:33.659Z,6.27
2019-05-25T02:01:02.625Z,7.17
2019-05-25T02:03:31.559Z,6.53
2019-05-25T02:06:00.517Z,6.90
2019-05-25T02:08:29.459Z,7.30
2019-05-25T02:10:58.415Z,7.07
2019-05-25T02:13:27.357Z,7.13
2019-05-25T02:15:56.319Z,7.93
2019-05-25T02:18:25.260Z,6.83
2019-05-25T02:20:54.242Z,7.23
2019-05-25T02:23:23.194Z,8.03
2019-05-25T02:25:52.139Z,6.77
2019-05-25T02:28:21.084Z,7.53
2019-05-25T02:30:50.056Z,7.40
2019-05-25T02:33:19.055Z,7.53
2019-05-25T02:35:47.994Z,7.63
2019-05-25T02:38:16.968Z,7.93
2019-05-25T02:40:45.920Z,7.77
2019-05-25T02:43:14.917Z,7.57
2019-05-25T02:45:43.950Z,9.33
2019-05-25T02:48:13.933Z,8.73
2019-05-25T02:50:42.884Z,9.23
2019-05-25T02:53:11.824Z,8.67
2019-05-25T02:55:40.767Z,9.83
2019-05-25T02:58:09.708Z,9.17
2019-05-25T03:00:39.136Z,9.27
2019-05-25T03:03:08.100Z,8.33
2019-05-25T03:05:37.125Z,8.43
2019-05-25T03:08:06.059Z,7.60
2019-05-25T03:10:36.082Z,7.93
2019-05-25T03:13:05.987Z,7.77
2019-05-25T03:15:34.954Z,8.23
2019-05-25T03:18:04.070Z,8.67
2019-05-25T03:20:33.034Z,7.80
2019-05-25T03:23:02.071Z,8.03
2019-05-25T03:25:31.091Z,8.00
2019-05-25T03:28:00.032Z,7.70
2019-05-25T03:30:35.586Z,7.60
2019-05-25T03:33:04.646Z,7.17
2019-05-25T03:35:33.907Z,7.10
2019-05-25T03:38:02.845Z,6.80
2019-05-25T03:40:31.800Z,6.80
2019-05-25T03:43:00.741Z,6.50
2019-05-25T03:45:29.707Z,6.67
2019-05-25T03:47:58.659Z,6.33
2019-05-25T03:50:27.611Z,7.47
2019-05-25T03:52:56.586Z,7.33
2019-05-25T03:55:25.583Z,6.33
2019-05-25T03:57:54.529Z,7.47
2019-05-25T04:00:25.016Z,7.03
2019-05-25T04:02:53.979Z,6.83
2019-05-25T04:05:22.994Z,6.90
2019-05-25T04:07:51.923Z,6.47
2019-05-25T04:10:20.876Z,7.27
2019-05-25T04:12:49.815Z,6.83
2019-05-25T04:15:18.767Z,5.93
2019-05-25T04:17:47.711Z,6.17
2019-05-25T04:20:16.853Z,6.07
2019-05-25T04:22:45.796Z,6.83
2019-05-25T04:25:14.903Z,7.07
2019-05-25T04:27:43.852Z,5.77
2019-05-25T04:30:12.982Z,5.57
2019-05-25T04:32:41.952Z,6.10
2019-05-25T04:35:10.895Z,5.73
2019-05-25T04:37:39.839Z,5.93
2019-05-25T04:40:08.851Z,5.67
2019-05-25T04:42:37.937Z,6.07
2019-05-25T04:45:06.953Z,5.90
2019-05-25T04:47:35.891Z,5.50
2019-05-25T04:50:06.308Z,5.77
2019-05-25T04:52:35.282Z,5.70
2019-05-25T04:55:05.098Z,6.03
2019-05-25T04:57:34.076Z,6.20
2019-05-25T05:00:04.479Z,5.80
2019-05-25T05:02:33.457Z,5.43
2019-05-25T05:05:02.419Z,5.10
2019-05-25T05:07:31.424Z,4.53
2019-05-25T05:10:02.945Z,4.80
2019-05-25T05:12:31.002Z,4.97
2019-05-25T05:14:59.960Z,5.37
2019-05-25T05:17:28.924Z,4.90
2019-05-25T05:19:57.855Z,4.73
2019-05-25T05:22:26.799Z,4.90
2019-05-25T05:24:55.759Z,4.90
2019-05-25T05:27:24.704Z,4.70
2019-05-25T05:29:53.643Z,4.07
2019-05-25T05:32:27.434Z,4.10
2019-05-25T05:34:53.242Z,4.50
2019-05-25T05:37:23.655Z,3.77
2019-05-25T05:39:52.591Z,3.97
2019-05-25T05:42:23.072Z,3.73
2019-05-25T05:44:53.553Z,3.60
2019-05-25T05:47:22.968Z,3.80
2019-05-25T05:49:53.483Z,4.37
2019-05-25T05:52:23.958Z,4.00
2019-05-25T05:54:53.655Z,4.03
2019-05-25T05:57:22.611Z,3.97
2019-05-25T05:59:51.552Z,3.87
2019-05-25T06:02:20.491Z,3.90
2019-05-25T06:04:49.428Z,4.10
2019-05-25T06:07:18.398Z,4.60
2019-05-25T06:09:47.322Z,4.13
2019-05-25T06:12:16.259Z,4.20
2019-05-25T06:14:45.202Z,3.63
2019-05-25T06:17:14.148Z,4.03
2019-05-25T06:19:43.091Z,3.63
2019-05-25T06:22:12.062Z,3.73
2019-05-25T06:24:40.987Z,3.50
2019-05-25T06:27:09.936Z,3.93
2019-05-25T06:29:38.885Z,3.53
2019-05-25T06:32:07.848Z,3.47
2019-05-25T06:34:36.775Z,3.00
2019-05-25T06:37:05.727Z,3.63
2019-05-25T06:39:34.688Z,3.70
2019-05-25T06:42:03.675Z,3.43
2019-05-25T06:44:32.628Z,3.53
2019-05-25T06:47:01.596Z,3.57
2019-05-25T06:49:30.602Z,3.70
2019-05-25T06:52:00.626Z,3.67
2019-05-25T06:54:29.636Z,3.87
2019-05-25T06:56:58.655Z,3.53
2019-05-25T06:59:27.679Z,3.97
2019-05-25T07:01:56.611Z,3.80
2019-05-25T07:04:25.567Z,3.80
2019-05-25T07:06:54.499Z,4.37
2019-05-25T07:09:23.499Z,3.67
2019-05-25T07:11:52.448Z,4.07
2019-05-25T07:14:21.416Z,3.30
2019-05-25T07:16:50.354Z,3.43
2019-05-25T07:19:19.338Z,3.43
2019-05-25T07:21:48.276Z,3.80
2019-05-25T07:24:17.218Z,3.20
2019-05-25T07:26:46.154Z,3.83
2019-05-25T07:29:15.096Z,3.40
2019-05-25T07:31:44.115Z,3.20
2019-05-25T07:34:13.067Z,3.50
2019-05-25T07:36:42.011Z,3.30
2019-05-25T07:39:10.964Z,3.00
2019-05-25T07:41:39.939Z,3.53
2019-05-25T07:44:08.886Z,3.70
2019-05-25T07:46:37.832Z,2.80
2019-05-25T07:49:06.853Z,3.17
2019-05-25T07:51:38.132Z,2.90
2019-05-25T07:54:06.462Z,2.72
2019-05-25T07:56:35.401Z,3.25
2019-05-25T07:59:04.375Z,3.47
2019-05-25T08:01:33.315Z,3.57
2019-05-25T08:04:02.263Z,3.40
2019-05-25T08:06:31.228Z,3.53
2019-05-25T08:09:00.236Z,3.70
2019-05-25T08:11:30.788Z,3.63
2019-05-25T08:13:59.745Z,3.27
2019-05-25T08:16:28.679Z,3.60
2019-05-25T08:18:57.621Z,3.50
2019-05-25T08:21:26.567Z,3.80
2019-05-25T08:23:55.515Z,3.60
2019-05-25T08:26:24.447Z,4.00
2019-05-25T08:28:53.400Z,3.60
2019-05-25T08:31:22.327Z,3.80
2019-05-25T08:33:51.366Z,3.70
2019-05-25T08:36:20.300Z,3.80
2019-05-25T08:38:49.254Z,3.67
2019-05-25T08:41:18.194Z,4.40
2019-05-25T08:43:47.156Z,4.37
2019-05-25T08:46:16.105Z,4.33
2019-05-25T08:48:45.047Z,3.50
2019-05-25T08:51:14.031Z,4.70
2019-05-25T08:53:46.462Z,5.23
2019-05-25T08:56:13.664Z,3.70
2019-05-25T08:58:48.407Z,4.27
2019-05-25T09:01:13.256Z,5.37
2019-05-25T09:03:42.211Z,4.33
2019-05-25T09:06:11.162Z,4.90
2019-05-25T09:08:40.112Z,4.90
2019-05-25T09:11:09.056Z,4.87
2019-05-25T09:13:38.022Z,4.20
2019-05-25T09:16:06.978Z,4.63
2019-05-25T09:18:35.917Z,5.07
2019-05-25T09:21:04.865Z,4.17
2019-05-25T09:23:33.805Z,4.97
2019-05-25T09:26:02.795Z,5.33
2019-05-25T09:28:31.773Z,4.80
2019-05-25T09:31:00.729Z,5.07
2019-05-25T09:33:29.667Z,4.93
2019-05-25T09:35:58.631Z,4.90
2019-05-25T09:38:27.626Z,5.53
2019-05-25T09:40:56.576Z,4.73
2019-05-25T09:43:25.516Z,4.60
2019-05-25T09:45:54.614Z,4.97
2019-05-25T09:48:23.628Z,4.93
2019-05-25T09:50:52.581Z,5.25
2019-05-25T09:53:21.536Z,6.50
2019-05-25T09:55:50.499Z,5.73
2019-05-25T09:58:19.433Z,5.93
2019-05-25T10:00:48.376Z,5.23
2019-05-25T10:03:17.317Z,5.70
2019-05-25T10:05:46.256Z,4.93
2019-05-25T10:08:17.656Z,4.93
2019-05-25T10:10:46.603Z,4.93
2019-05-25T10:13:15.549Z,5.90
2019-05-25T10:15:45.237Z,5.33
2019-05-25T10:18:14.204Z,5.10
2019-05-25T10:20:43.166Z,5.87
2019-05-25T10:23:12.109Z,5.23
2019-05-25T10:25:41.052Z,4.70
2019-05-25T10:28:09.991Z,5.20
2019-05-25T10:30:38.931Z,4.70
2019-05-25T10:33:07.878Z,4.97
2019-05-25T10:35:36.844Z,4.60
2019-05-25T10:38:05.953Z,4.00
2019-05-25T10:40:34.987Z,5.10
2019-05-25T10:43:03.938Z,4.67
2019-05-25T10:45:33.879Z,4.28
2019-05-25T10:48:04.799Z,4.40
2019-05-25T10:50:33.753Z,4.30
2019-05-25T10:53:03.710Z,3.60
2019-05-25T10:55:32.696Z,4.15
2019-05-25T10:58:01.635Z,4.42
2019-05-25T11:00:30.590Z,5.03
2019-05-25T11:02:59.528Z,4.25
2019-05-25T11:05:28.572Z,4.20
2019-05-25T11:07:57.521Z,5.95
2019-05-25T11:10:26.478Z,4.78
2019-05-25T11:12:55.426Z,5.33
2019-05-25T11:15:24.385Z,4.90
2019-05-25T11:17:53.387Z,4.35
2019-05-25T11:20:23.159Z,4.40
2019-05-25T11:22:52.103Z,4.28
2019-05-25T11:25:21.108Z,5.15
2019-05-25T11:27:50.052Z,4.58
2019-05-25T11:30:19.385Z,5.08
2019-05-25T11:32:48.744Z,4.20
2019-05-25T11:35:18.028Z,4.15
2019-05-25T11:37:46.982Z,4.12
2019-05-25T11:40:16.388Z,4.40
2019-05-25T11:42:45.343Z,4.08
2019-05-25T11:45:14.457Z,4.30
2019-05-25T11:47:43.516Z,4.33
2019-05-25T11:50:12.923Z,4.15
2019-05-25T11:52:41.988Z,4.50
2019-05-25T11:55:11.340Z,4.10
2019-05-25T11:57:40.289Z,3.95
2019-05-25T12:00:23.770Z,4.83
2019-05-25T12:02:41.418Z,4.25
2019-05-25T12:05:10.896Z,4.90
2019-05-25T12:07:43.652Z,4.20
2019-05-25T12:10:10.668Z,3.92
2019-05-25T12:12:39.612Z,3.75
2019-05-25T12:15:08.737Z,4.08
2019-05-25T12:17:37.673Z,4.78
2019-05-25T12:20:06.784Z,4.58
2019-05-25T12:22:35.727Z,3.87
2019-05-25T12:25:05.444Z,5.05
2019-05-25T12:27:34.419Z,3.67
2019-05-25T12:30:04.241Z,3.87
2019-05-25T12:32:33.247Z,3.77
2019-05-25T12:35:04.243Z,3.30
2019-05-25T12:37:33.199Z,3.42
2019-05-25T12:40:04.664Z,3.85
2019-05-25T12:42:33.777Z,3.70
2019-05-25T12:45:02.721Z,4.00
2019-05-25T12:47:31.685Z,3.58
2019-05-25T12:50:00.627Z,3.65
2019-05-25T12:52:29.601Z,3.20
2019-05-25T12:54:58.539Z,3.27
2019-05-25T12:57:27.498Z,3.62
2019-05-25T12:59:56.523Z,3.15
2019-05-25T13:02:25.473Z,3.55
2019-05-25T13:04:54.414Z,3.50
2019-05-25T13:07:23.375Z,3.52
2019-05-25T13:09:52.387Z,3.45
2019-05-25T13:12:21.349Z,3.65
2019-05-25T13:14:50.271Z,3.15
2019-05-25T13:17:19.217Z,3.50
2019-05-25T13:19:48.161Z,2.72
2019-05-25T13:22:17.140Z,2.92
2019-05-25T13:24:46.206Z,2.80
2019-05-25T13:27:15.191Z,2.90
2019-05-25T13:29:44.215Z,2.80
2019-05-25T13:32:13.145Z,2.72
2019-05-25T13:34:43.727Z,2.40
2019-05-25T13:37:12.739Z,2.72
2019-05-25T13:39:41.772Z,3.22
2019-05-25T13:42:10.772Z,3.05
2019-05-25T13:44:39.716Z,2.50
2019-05-25T13:47:08.691Z,2.40
2019-05-25T13:49:37.642Z,2.00
2019-05-25T13:52:06.579Z,2.00
2019-05-25T13:54:35.553Z,1.80
2019-05-25T13:57:04.491Z,1.90
2019-05-25T13:59:33.436Z,1.77
2019-05-25T14:02:02.374Z,1.80
2019-05-25T14:04:31.321Z,2.00
2019-05-25T14:07:01.557Z,1.87
2019-05-25T14:09:30.522Z,1.90
2019-05-25T14:11:59.461Z,1.90
2019-05-25T14:14:28.425Z,1.57
2019-05-25T14:16:58.299Z,1.35
2019-05-25T14:19:27.257Z,1.80
2019-05-25T14:21:56.197Z,1.75
2019-05-25T14:24:25.148Z,1.70
2019-05-25T14:26:54.081Z,2.00
2019-05-25T14:29:26.188Z,1.70
2019-05-25T14:31:53.660Z,1.55
2019-05-25T14:34:22.604Z,1.70
2019-05-25T14:36:51.534Z,2.00
2019-05-25T14:39:20.483Z,1.50
2019-05-25T14:41:49.434Z,1.60
2019-05-25T14:44:18.442Z,1.67
2019-05-25T14:46:47.393Z,1.52
2019-05-25T14:49:16.346Z,1.67
2019-05-25T14:51:46.343Z,1.40
2019-05-25T14:54:16.272Z,1.60
2019-05-25T14:56:45.217Z,1.65
2019-05-25T14:59:14.172Z,1.75
2019-05-25T15:01:43.121Z,2.00
2019-05-25T15:04:12.081Z,1.90
2019-05-25T15:06:45.307Z,1.80
2019-05-25T15:09:15.232Z,1.60
2019-05-25T15:11:44.180Z,1.92
2019-05-25T15:14:13.130Z,1.80
2019-05-25T15:16:42.175Z,1.70
2019-05-25T15:19:11.119Z,3.80
2019-05-25T15:21:40.149Z,4.85
2019-05-25T15:24:09.132Z,2.50
2019-05-25T15:26:38.127Z,2.50
2019-05-25T15:29:07.091Z,3.17
2019-05-25T15:31:36.022Z,3.37
2019-05-25T15:34:04.985Z,2.10
2019-05-25T15:36:33.997Z,2.50
2019-05-25T15:39:03.011Z,2.05
2019-05-25T15:41:32.007Z,2.00
2019-05-25T15:44:00.956Z,2.33
2019-05-25T15:46:29.900Z,2.67
2019-05-25T15:48:58.843Z,2.70
2019-05-25T15:51:27.806Z,2.30
2019-05-25T15:53:56.808Z,2.95
2019-05-25T15:56:25.774Z,2.10
2019-05-25T15:58:54.792Z,2.72
2019-05-25T16:01:23.719Z,2.10
2019-05-25T16:03:52.678Z,2.45
2019-05-25T16:06:23.823Z,1.85
2019-05-25T16:08:52.270Z,1.67
2019-05-25T16:11:21.203Z,1.72
2019-05-25T16:13:50.173Z,2.72
2019-05-25T16:16:19.110Z,2.17
2019-05-25T16:18:49.033Z,2.05
2019-05-25T16:21:17.971Z,2.55
2019-05-25T16:23:46.922Z,2.20
2019-05-25T16:26:15.872Z,2.17
2019-05-25T16:28:44.812Z,1.77
2019-05-25T16:31:13.788Z,2.08
2019-05-25T16:33:43.645Z,2.12
2019-05-25T16:36:12.618Z,3.27
2019-05-25T16:38:41.550Z,2.50
2019-05-25T16:41:10.496Z,3.00
2019-05-25T16:43:39.447Z,2.85
2019-05-25T16:46:08.395Z,2.25
2019-05-25T16:48:37.357Z,1.75
2019-05-25T16:51:06.303Z,1.90
2019-05-25T16:53:35.247Z,1.50
2019-05-25T16:56:10.179Z,1.80
2019-05-25T16:58:43.100Z,1.98
2019-05-25T17:01:12.054Z,2.33
2019-05-25T17:03:40.990Z,1.70
2019-05-25T17:06:09.962Z,1.87
2019-05-25T17:08:38.910Z,1.47
2019-05-25T17:11:07.861Z,1.70
2019-05-25T17:13:36.804Z,1.70
2019-05-25T17:16:05.754Z,1.87
2019-05-25T17:18:34.708Z,1.70
2019-05-25T17:21:03.718Z,2.00
2019-05-25T17:23:32.672Z,1.70
2019-05-25T17:26:01.626Z,1.70
2019-05-25T17:28:30.640Z,1.85
2019-05-25T17:30:59.584Z,1.72
2019-05-25T17:33:44.763Z,1.57
2019-05-25T17:35:59.182Z,1.60
2019-05-25T17:38:28.117Z,1.62
2019-05-25T17:40:57.066Z,1.87
2019-05-25T17:43:26.003Z,2.02
2019-05-25T17:45:54.971Z,1.90
2019-05-25T17:48:23.976Z,2.10
2019-05-25T17:50:52.919Z,2.67
2019-05-25T17:53:21.863Z,1.90
2019-05-25T17:55:51.898Z,2.05
2019-05-25T17:58:20.825Z,1.87
2019-05-25T18:00:50.461Z,2.08
2019-05-25T18:03:20.384Z,2.27
2019-05-25T18:05:49.312Z,1.95
2019-05-25T18:08:20.117Z,2.22
2019-05-25T18:10:53.566Z,2.50
2019-05-25T18:13:19.989Z,1.98
2019-05-25T18:15:48.947Z,2.47
2019-05-25T18:18:17.975Z,2.40
2019-05-25T18:20:46.955Z,2.50
2019-05-25T18:23:15.969Z,2.83
2019-05-25T18:25:44.920Z,2.90
2019-05-25T18:28:13.966Z,2.65
2019-05-25T18:30:42.935Z,2.70
2019-05-25T18:33:11.865Z,2.20
2019-05-25T18:35:40.945Z,2.02
2019-05-25T18:38:09.879Z,3.20
2019-05-25T18:40:38.835Z,2.98
2019-05-25T18:43:07.782Z,2.80
2019-05-25T18:45:36.736Z,2.50
2019-05-25T18:48:10.968Z,2.23
2019-05-25T18:53:19.265Z,2.07
2019-05-25T18:56:06.070Z,2.10
2019-05-25T18:58:35.044Z,1.90
2019-05-25T19:01:24.181Z,2.43
2019-05-25T19:03:58.491Z,2.30
2019-05-25T19:07:04.294Z,2.50
2019-05-25T19:09:33.252Z,2.27
2019-05-25T19:12:02.191Z,2.63
2019-05-25T19:14:31.123Z,2.53
2019-05-25T19:17:00.149Z,2.30
2019-05-25T19:19:29.096Z,2.93
2019-05-25T19:21:58.071Z,2.60
2019-05-25T19:24:26.993Z,2.90
2019-05-25T19:26:55.942Z,2.77
2019-05-25T19:29:25.852Z,3.17
2019-05-25T19:31:54.800Z,2.60
2019-05-25T19:34:23.741Z,3.17
2019-05-25T19:36:52.699Z,3.27
2019-05-25T19:39:21.631Z,3.20
2019-05-25T19:41:50.598Z,3.60
2019-05-25T19:44:38.886Z,3.90
2019-05-25T19:47:07.823Z,3.53
2019-05-25T19:49:36.757Z,3.20
2019-05-25T19:52:05.922Z,3.37
2019-05-25T19:54:34.866Z,3.27
2019-05-25T19:57:03.892Z,4.17
2019-05-25T19:59:32.872Z,3.93
2019-05-25T20:02:01.819Z,4.50
2019-05-25T20:04:30.750Z,5.07
2019-05-25T20:07:00.645Z,4.90
2019-05-25T20:09:29.587Z,4.47
2019-05-25T20:11:58.540Z,4.17
2019-05-25T20:14:27.480Z,4.27
2019-05-25T20:16:56.438Z,4.23
2019-05-25T20:19:25.374Z,4.83
2019-05-25T20:21:54.348Z,5.33
2019-05-25T20:24:23.268Z,4.83
2019-05-25T20:26:52.288Z,4.93
2019-05-25T20:29:21.231Z,4.60
2019-05-25T20:31:50.244Z,4.67
2019-05-25T20:34:19.175Z,4.50
2019-05-25T20:36:48.116Z,4.40
2019-05-25T20:39:17.149Z,5.00
2019-05-25T20:41:46.103Z,5.10
2019-05-25T20:44:15.054Z,5.10
2019-05-25T20:46:45.613Z,4.83
2019-05-25T20:49:14.623Z,5.33
2019-05-25T20:51:43.570Z,5.20
2019-05-25T20:54:12.511Z,4.70
2019-05-25T20:56:41.514Z,4.37
2019-05-25T20:59:10.491Z,4.93
2019-05-25T21:01:39.432Z,4.90
2019-05-25T21:04:08.468Z,4.67
2019-05-25T21:06:37.391Z,4.43
2019-05-25T21:09:06.629Z,4.40
2019-05-25T21:11:35.629Z,4.60
2019-05-25T21:14:05.545Z,4.27
2019-05-25T21:16:34.481Z,4.77
2019-05-25T21:19:03.498Z,4.27
2019-05-25T21:21:32.442Z,4.70
2019-05-25T21:24:01.383Z,5.23
2019-05-25T21:26:30.329Z,4.47
2019-05-25T21:28:59.300Z,4.37
2019-05-25T21:31:28.281Z,4.57
2019-05-25T21:33:57.219Z,4.97
2019-05-25T21:36:26.156Z,4.43
2019-05-25T21:38:55.094Z,5.07
2019-05-25T21:41:24.032Z,4.40
2019-05-25T21:43:52.976Z,4.97
2019-05-25T21:46:21.930Z,4.57
2019-05-25T21:48:50.871Z,4.80
2019-05-25T21:51:19.806Z,4.13
2019-05-25T21:53:48.755Z,4.43
2019-05-25T21:56:17.698Z,5.50
2019-05-25T21:58:46.632Z,4.97
2019-05-25T22:01:15.747Z,5.67
2019-05-25T22:03:44.765Z,6.20
2019-05-25T22:06:23.780Z,5.73
2019-05-25T22:08:44.341Z,5.30
2019-05-25T22:11:13.300Z,5.63
2019-05-25T22:13:42.232Z,5.20
2019-05-25T22:16:11.157Z,5.30
2019-05-25T22:18:40.100Z,5.50
2019-05-25T22:21:09.103Z,5.93
2019-05-25T22:23:38.055Z,6.43
2019-05-25T22:26:07.003Z,7.97
2019-05-25T22:28:44.689Z,7.03
2019-05-25T22:31:06.590Z,8.13
2019-05-25T22:33:35.553Z,8.57
2019-05-25T22:36:04.485Z,7.97
2019-05-25T22:38:33.449Z,7.93
2019-05-25T22:41:02.387Z,8.33
2019-05-25T22:43:31.331Z,7.90
2019-05-25T22:46:00.270Z,6.77
2019-05-25T22:48:29.228Z,6.67
2019-05-25T22:50:58.173Z,7.20
2019-05-25T22:53:27.131Z,7.03
2019-05-25T22:55:56.090Z,6.17
2019-05-25T22:58:25.034Z,5.73
2019-05-25T23:00:53.968Z,5.73
2019-05-25T23:03:22.909Z,6.00
2019-05-25T23:05:51.852Z,5.97
2019-05-25T23:08:20.788Z,5.87
2019-05-25T23:10:49.740Z,5.97
2019-05-25T23:13:18.683Z,5.80
2019-05-25T23:15:47.629Z,6.13
2019-05-25T23:18:16.586Z,6.47
2019-05-25T23:20:45.536Z,6.23
2019-05-25T23:23:14.478Z,6.50
2019-05-25T23:25:43.420Z,5.90
2019-05-25T23:28:12.355Z,6.70
2019-05-25T23:30:41.357Z,6.20
2019-05-25T23:33:10.287Z,6.47
2019-05-25T23:35:39.244Z,7.10
2019-05-25T23:38:08.397Z,6.10
2019-05-25T23:40:37.347Z,6.27
2019-05-25T23:43:06.267Z,6.87
2019-05-25T23:45:35.229Z,7.10
2019-05-25T23:48:04.153Z,6.80
2019-05-25T23:50:33.101Z,7.33
2019-05-25T23:53:02.040Z,6.63
2019-05-25T23:55:30.990Z,6.33
2019-05-25T23:57:59.928Z,6.47
